Gh Harmony — VRNJ6 — position and weather

sailwx.info

Track history (hours):
 
Tides and Currents Weather Stations Pressure Air Temp Water Temp Dewpoint Dewpoint Depression Visibility Wind Speed Wind Dir Waves Ship Positions

Gh Harmony

Last reported at 2018-Jun-21 21:23 UTC. Time now 2018-Jun-22 13:31 UTC.
Position S 34°07' E 151°21'.

Length 229 m; draft 9 m.

Type: Cargo ship. MMSI: 477848100.

Date/timePositionNaut miles runAvg speedWind from/ knotsBaromVisibWave heightAir tempDewpointWater temp
2018-Jun-21 21:23S 34°07' E 151°21'512.0
2018-Jun-21 21:00S 34°04' E 151°25'612.0
2018-Jun-21 20:30S 33°60' E 151°30'611.8
2018-Jun-21 20:00S 33°55' E 151°35'611.4
2018-Jun-21 19:30S 33°51' E 151°39'611.3
2018-Jun-21 19:00S 33°46' E 151°43'611.5
2018-Jun-21 18:30S 33°42' E 151°47'611.5
2018-Jun-21 18:00S 33°37' E 151°51'3211.0
2018-Jun-21 15:06S 33°13' E 152°16'110.3
2018-Jun-21 15:00S 33°12' E 152°17'510.3
2018-Jun-21 14:30S 33°08' E 152°21'510.5
2018-Jun-21 14:00S 33°04' E 152°25'510.6
2018-Jun-21 13:30S 32°60' E 152°29'510.3
2018-Jun-21 13:00S 32°55' E 152°32'510.0
2018-Jun-21 12:30S 32°51' E 152°35'510.0
2018-Jun-21 12:00S 32°47' E 152°38'510.2
2018-Jun-21 11:30S 32°42' E 152°40'510.6
2018-Jun-21 11:00S 32°37' E 152°42'  
Track history (hours):
 
Tides and Currents Weather Stations Pressure Air Temp Water Temp Dewpoint Dewpoint Depression Visibility Wind Speed Wind Dir Waves Ship Positions

Gh Harmony

Last reported at 2018-Jun-21 21:23 UTC. Time now 2018-Jun-22 13:31 UTC.
Position S 34°07' E 151°21'.

Length 229 m; draft 9 m.

Type: Cargo ship. MMSI: 477848100.

Date/timePositionNaut miles runAvg speedWind from/ knotsBaromVisibWave heightAir tempDewpointWater temp
2018-Jun-21 21:23S 34°07' E 151°21'512.0
2018-Jun-21 21:00S 34°04' E 151°25'612.0
2018-Jun-21 20:30S 33°60' E 151°30'611.8
2018-Jun-21 20:00S 33°55' E 151°35'611.4
2018-Jun-21 19:30S 33°51' E 151°39'611.3
2018-Jun-21 19:00S 33°46' E 151°43'611.5
2018-Jun-21 18:30S 33°42' E 151°47'611.5
2018-Jun-21 18:00S 33°37' E 151°51'3211.0
2018-Jun-21 15:06S 33°13' E 152°16'110.3
2018-Jun-21 15:00S 33°12' E 152°17'510.3
2018-Jun-21 14:30S 33°08' E 152°21'510.5
2018-Jun-21 14:00S 33°04' E 152°25'510.6
2018-Jun-21 13:30S 32°60' E 152°29'510.3
2018-Jun-21 13:00S 32°55' E 152°32'510.0
2018-Jun-21 12:30S 32°51' E 152°35'510.0
2018-Jun-21 12:00S 32°47' E 152°38'510.2
2018-Jun-21 11:30S 32°42' E 152°40'510.6
2018-Jun-21 11:00S 32°37' E 152°42'  

Dump ship's entire track history